Time;durP1;ratioP1;P1;durP2;ratioP2;P2;SDS_P1;SDS_P2;PMS_P1;PMS_P2;Temp;Humidity;BMP_temperature;BMP_pressure;BME280_temperature;BME280_humidity;BME280_pressure;Samples;Min_cycle;Max_cycle;Signal;HPM_P1;HPM_P2
2023/10/26 00:00:37;;;;;;;4.35;2.30;;;;;;;11.68;100.00;96309.72;3164151;23;20022;-90
2023/10/26 00:02:13;;;;;;;4.07;2.40;;;;;;;11.93;100.00;96313.28;3163445;23;20634;-89
2023/10/26 00:03:28;;;;;;;4.20;2.50;;;;;;;12.02;100.00;96310.06;3165089;23;20060;-90
2023/10/26 00:04:44;;;;;;;3.38;2.15;;;;;;;12.08;100.00;96306.19;3163228;23;20025;-90
2023/10/26 00:05:59;;;;;;;4.63;2.08;;;;;;;11.87;100.00;96310.16;3163839;23;20025;-90
2023/10/26 00:07:15;;;;;;;3.53;2.22;;;;;;;12.07;100.00;96304.53;3164020;23;20033;-90
2023/10/26 00:08:31;;;;;;;4.95;2.38;;;;;;;12.11;100.00;96303.34;3163263;23;20037;-89
2023/10/26 00:09:46;;;;;;;5.05;2.20;;;;;;;12.02;100.00;96304.00;3163922;23;20045;-90
2023/10/26 00:11:02;;;;;;;3.90;2.40;;;;;;;12.04;100.00;96304.75;3164483;23;20022;-90
2023/10/26 00:12:18;;;;;;;4.47;2.45;;;;;;;12.05;100.00;96304.63;3164641;23;20113;-91
2023/10/26 00:13:33;;;;;;;3.78;2.40;;;;;;;12.18;100.00;96302.00;3163258;23;20045;-90
2023/10/26 00:14:49;;;;;;;4.30;2.63;;;;;;;12.17;100.00;96300.31;3164709;23;20026;-91
2023/10/26 00:16:05;;;;;;;4.45;2.30;;;;;;;12.27;100.00;96292.66;3163696;23;20022;-90
2023/10/26 00:17:22;;;;;;;3.88;1.80;;;;;;;12.15;100.00;96289.06;3163770;23;20138;-91
2023/10/26 00:18:37;;;;;;;2.05;1.33;;;;;;;12.30;100.00;96292.44;3163704;23;20053;-90
2023/10/26 00:19:53;;;;;;;2.75;1.75;;;;;;;12.38;100.00;96292.75;3163936;23;20021;-90
2023/10/26 00:21:08;;;;;;;1.45;1.10;;;;;;;12.33;100.00;96297.47;3163794;23;20018;-90
2023/10/26 00:22:24;;;;;;;2.10;1.67;;;;;;;12.52;100.00;96291.75;3148320;23;20023;-90
2023/10/26 00:23:40;;;;;;;2.92;1.35;;;;;;;12.57;100.00;96288.81;3155033;23;20459;-90
2023/10/26 00:24:56;;;;;;;2.13;1.50;;;;;;;12.68;100.00;96288.03;3163346;23;20026;-89
2023/10/26 00:26:11;;;;;;;1.90;1.00;;;;;;;12.43;100.00;96295.03;3147122;23;20023;-90
2023/10/26 00:27:27;;;;;;;1.67;1.20;;;;;;;12.53;100.00;96288.19;3153687;23;20101;-91
2023/10/26 00:28:43;;;;;;;1.85;1.17;;;;;;;12.64;100.00;96294.47;3147719;23;20023;-90
2023/10/26 00:29:58;;;;;;;1.55;1.00;;;;;;;12.54;100.00;96295.13;3138811;23;20030;-90
2023/10/26 00:31:14;;;;;;;1.13;0.80;;;;;;;12.57;100.00;96294.91;3139264;23;20026;-90
2023/10/26 00:32:29;;;;;;;0.80;0.63;;;;;;;12.67;100.00;96296.88;3154419;23;20100;-89
2023/10/26 00:33:45;;;;;;;1.08;0.82;;;;;;;12.76;100.00;96287.50;3164434;23;20028;-89
2023/10/26 00:35:00;;;;;;;1.45;0.98;;;;;;;12.70;100.00;96299.28;3164636;23;20492;-89
2023/10/26 00:36:16;;;;;;;1.80;0.90;;;;;;;12.66;100.00;96303.06;3163582;23;20411;-89
2023/10/26 00:37:32;;;;;;;2.17;0.80;;;;;;;12.48;100.00;96300.81;3163457;23;20030;-89
2023/10/26 00:38:47;;;;;;;0.90;0.75;;;;;;;12.54;100.00;96304.78;3163293;23;20026;-89
2023/10/26 00:40:04;;;;;;;0.60;0.50;;;;;;;12.42;100.00;96296.81;3163526;23;20030;-89
2023/10/26 00:41:19;;;;;;;0.90;0.68;;;;;;;12.48;100.00;96297.34;3147892;23;20553;-88
2023/10/26 00:42:35;;;;;;;1.00;0.70;;;;;;;12.41;100.00;96294.28;3154553;23;20117;-88
2023/10/26 00:43:51;;;;;;;1.85;0.90;;;;;;;12.33;100.00;96291.38;3148151;23;20086;-89
2023/10/26 00:45:07;;;;;;;1.33;1.00;;;;;;;12.27;100.00;96293.47;3139294;23;20109;-89
2023/10/26 00:46:22;;;;;;;0.40;0.40;;;;;;;12.14;100.00;96290.03;3155045;23;20021;-88
2023/10/26 00:47:38;;;;;;;2.35;0.73;;;;;;;12.22;100.00;96289.50;3163284;23;20025;-89
2023/10/26 00:48:54;;;;;;;1.90;1.02;;;;;;;12.29;100.00;96285.50;3163284;23;20029;-90
2023/10/26 00:50:10;;;;;;;1.45;0.80;;;;;;;12.33;100.00;96283.53;3163506;23;20022;-90
2023/10/26 00:51:25;;;;;;;1.05;0.40;;;;;;;12.17;100.00;96286.34;3163465;23;20108;-90
2023/10/26 00:52:41;;;;;;;0.50;0.43;;;;;;;12.33;100.00;96283.53;3163856;23;20267;-89
2023/10/26 00:53:56;;;;;;;1.10;0.60;;;;;;;12.24;100.00;96277.94;3147964;23;20035;-89
2023/10/26 00:55:13;;;;;;;0.70;0.60;;;;;;;12.25;100.00;96284.88;3139519;23;20022;-90
2023/10/26 00:56:28;;;;;;;2.38;1.00;;;;;;;12.25;100.00;96278.81;3154918;23;20026;-90
2023/10/26 00:57:44;;;;;;;0.45;0.45;;;;;;;12.22;100.00;96279.84;3148577;23;20065;-89
2023/10/26 00:59:00;;;;;;;0.60;0.50;;;;;;;12.33;100.00;96286.97;3153285;23;20374;-89
2023/10/26 01:00:15;;;;;;;1.42;0.77;;;;;;;12.24;100.00;96277.94;3163491;23;20022;-89
2023/10/26 01:01:32;;;;;;;0.50;0.50;;;;;;;12.38;100.00;96284.88;3163232;23;20040;-90
2023/10/26 01:02:48;;;;;;;0.80;0.60;;;;;;;12.43;100.00;96284.53;3147263;23;20033;-90
2023/10/26 01:04:06;;;;;;;1.02;0.65;;;;;;;12.39;100.00;96281.31;3138634;23;20355;-90
2023/10/26 01:05:21;;;;;;;0.45;0.45;;;;;;;12.16;100.00;96285.53;3154657;23;20354;-89
2023/10/26 01:06:37;;;;;;;2.35;0.57;;;;;;;12.32;100.00;96285.28;3164126;23;20022;-90
2023/10/26 01:07:53;;;;;;;0.98;0.60;;;;;;;12.33;100.00;96286.13;3164359;23;20018;-90
2023/10/26 01:09:08;;;;;;;0.80;0.70;;;;;;;12.41;100.00;96282.03;3164260;23;20033;-90
2023/10/26 01:10:24;;;;;;;0.30;0.30;;;;;;;12.28;100.00;96287.28;3163145;23;20021;-90
2023/10/26 01:11:42;;;;;;;0.50;0.50;;;;;;;12.42;100.00;96285.47;3147247;23;20022;-90
2023/10/26 01:12:57;;;;;;;0.52;0.50;;;;;;;12.41;100.00;96284.66;3153769;23;20054;-90
2023/10/26 01:14:14;;;;;;;0.85;0.60;;;;;;;12.29;100.00;96280.25;3163335;23;20022;-90
2023/10/26 01:15:29;;;;;;;0.80;0.60;;;;;;;12.34;100.00;96283.38;3163445;23;20089;-90
2023/10/26 01:16:45;;;;;;;0.70;0.60;;;;;;;12.27;100.00;96287.41;3162339;23;20069;-90
2023/10/26 01:18:00;;;;;;;0.63;0.50;;;;;;;12.27;100.00;96287.41;3162507;23;20510;-90
2023/10/26 01:19:16;;;;;;;0.40;0.32;;;;;;;12.35;100.00;96289.50;3164118;23;20032;-90
2023/10/26 01:20:31;;;;;;;0.32;0.30;;;;;;;12.42;100.00;96291.56;3164092;23;20070;-89
2023/10/26 01:21:48;;;;;;;0.38;0.38;;;;;;;12.39;100.00;96289.19;3162477;23;20355;-89
2023/10/26 01:23:04;;;;;;;0.75;0.50;;;;;;;12.32;100.00;96290.53;3162825;23;20014;-91
2023/10/26 01:24:20;;;;;;;0.50;0.50;;;;;;;12.18;100.00;96291.50;3162860;23;20026;-89
2023/10/26 01:25:35;;;;;;;0.40;0.40;;;;;;;12.39;100.00;96280.44;3163456;23;20022;-89
2023/10/26 01:26:51;;;;;;;0.40;0.40;;;;;;;12.56;100.00;96290.59;3162910;23;20029;-90
2023/10/26 01:28:07;;;;;;;2.50;0.60;;;;;;;12.54;100.00;96278.53;3148550;23;20022;-89
2023/10/26 01:29:22;;;;;;;0.40;0.40;;;;;;;12.31;100.00;96288.03;3154033;23;20367;-89
2023/10/26 01:30:40;;;;;;;0.93;0.60;;;;;;;12.36;100.00;96289.41;3164344;23;20521;-88
2023/10/26 01:31:57;;;;;;;0.50;0.50;;;;;;;12.55;100.00;96288.91;3147837;23;20030;-89
2023/10/26 01:33:12;;;;;;;0.50;0.30;;;;;;;12.47;100.00;96283.38;3155893;23;20022;-89
2023/10/26 01:34:28;;;;;;;0.40;0.30;;;;;;;12.41;100.00;96294.28;3163461;23;20116;-89
2023/10/26 01:35:45;;;;;;;6.13;0.57;;;;;;;12.38;100.00;96284.88;3148202;23;20206;-90
2023/10/26 01:37:04;;;;;;;0.30;0.30;;;;;;;12.36;100.00;96288.53;3139363;23;20420;-90
2023/10/26 01:38:19;;;;;;;0.30;0.30;;;;;;;12.34;100.00;96282.56;3139604;23;20528;-90
2023/10/26 01:39:35;;;;;;;1.30;0.40;;;;;;;12.41;100.00;96278.56;3154516;23;20022;-90
2023/10/26 01:40:52;;;;;;;9.43;0.55;;;;;;;12.51;100.00;96276.13;3148401;23;20493;-89
2023/10/26 01:42:09;;;;;;;0.38;0.38;;;;;;;12.56;100.00;96281.91;3155212;23;20022;-89
2023/10/26 01:43:25;;;;;;;0.30;0.30;;;;;;;12.42;100.00;96283.69;3164894;23;20021;-90
2023/10/26 01:44:41;;;;;;;0.30;0.30;;;;;;;12.65;100.00;96281.25;3148259;23;20054;-90
2023/10/26 01:45:56;;;;;;;0.30;0.30;;;;;;;12.48;100.00;96282.44;3155258;23;20022;-90
2023/10/26 01:47:13;;;;;;;1.25;0.63;;;;;;;12.41;100.00;96284.66;3165075;23;20740;-90
2023/10/26 01:48:28;;;;;;;2.88;0.77;;;;;;;12.42;100.00;96280.22;3164020;23;20022;-90
2023/10/26 01:49:44;;;;;;;1.67;0.52;;;;;;;12.53;100.00;96290.81;3148061;23;20029;-90
2023/10/26 01:51:00;;;;;;;0.20;0.20;;;;;;;12.45;100.00;96282.66;3153901;23;20025;-92
2023/10/26 01:52:15;;;;;;;0.63;0.45;;;;;;;12.63;100.00;96284.91;3163995;23;20586;-90
2023/10/26 01:53:31;;;;;;;0.45;0.38;;;;;;;12.51;100.00;96282.22;3163909;23;20025;-89
2023/10/26 01:54:47;;;;;;;0.40;0.38;;;;;;;12.41;100.00;96281.19;3164590;23;20021;-90
2023/10/26 01:56:03;;;;;;;0.50;0.50;;;;;;;12.43;100.00;96271.41;3148635;23;20082;-90
2023/10/26 01:57:18;;;;;;;0.73;0.30;;;;;;;12.51;100.00;96274.34;3139676;23;20026;-89
2023/10/26 01:58:34;;;;;;;2.30;0.57;;;;;;;12.64;100.00;96278.72;3140187;23;20062;-90
2023/10/26 01:59:49;;;;;;;1.00;0.30;;;;;;;12.52;100.00;96281.25;3153924;23;20021;-90
2023/10/26 02:01:05;;;;;;;0.10;0.10;;;;;;;12.55;100.00;96286.28;3163916;23;20018;-90
2023/10/26 02:02:21;;;;;;;0.60;0.60;;;;;;;12.67;100.00;96281.97;3163978;23;20656;-90
2023/10/26 02:03:37;;;;;;;0.20;0.20;;;;;;;12.39;100.00;96285.69;3163729;23;20351;-89
2023/10/26 02:04:54;;;;;;;0.32;0.32;;;;;;;12.61;100.00;96292.06;3163850;23;20022;-91
2023/10/26 02:06:10;;;;;;;1.20;0.47;;;;;;;12.49;100.00;96291.13;3164476;23;20305;-89
2023/10/26 02:07:25;;;;;;;0.50;0.50;;;;;;;12.43;100.00;96284.53;3163756;23;20022;-91
2023/10/26 02:08:41;;;;;;;1.20;0.30;;;;;;;12.45;100.00;96295.78;3164820;23;20105;-91
2023/10/26 02:09:57;;;;;;;0.30;0.30;;;;;;;12.39;100.00;96286.56;3165157;23;20054;-90
2023/10/26 02:11:13;;;;;;;0.30;0.30;;;;;;;12.28;100.00;96284.66;3147334;23;20093;-89
2023/10/26 02:12:30;;;;;;;3.15;0.40;;;;;;;12.29;100.00;96275.88;3153559;23;20362;-91
2023/10/26 02:13:46;;;;;;;0.55;0.43;;;;;;;12.20;100.00;96287.00;3147539;23;20022;-91
2023/10/26 02:15:01;;;;;;;0.30;0.30;;;;;;;12.26;100.00;96288.34;3154043;23;20022;-92
2023/10/26 02:16:18;;;;;;;0.75;0.50;;;;;;;12.28;100.00;96289.91;3163867;23;20026;-91
2023/10/26 02:17:34;;;;;;;0.43;0.40;;;;;;;12.39;100.00;96290.94;3148111;23;20026;-90
2023/10/26 02:18:49;;;;;;;0.40;0.40;;;;;;;12.37;100.00;96288.44;3153712;23;20033;-90
2023/10/26 02:20:05;;;;;;;0.65;0.60;;;;;;;12.55;100.00;96286.28;3164973;23;20029;-90
2023/10/26 02:21:21;;;;;;;0.60;0.40;;;;;;;12.42;100.00;96293.34;3163570;23;20511;-91
2023/10/26 02:22:36;;;;;;;0.47;0.40;;;;;;;12.46;100.00;96288.72;3163680;23;20026;-90
2023/10/26 02:23:52;;;;;;;0.40;0.40;;;;;;;12.43;100.00;96289.78;3147277;23;20021;-90
2023/10/26 02:25:08;;;;;;;0.30;0.30;;;;;;;12.27;100.00;96288.22;3138724;23;20019;-91
2023/10/26 02:26:23;;;;;;;0.45;0.30;;;;;;;12.43;100.00;96281.91;3154402;23;20022;-91
2023/10/26 02:27:39;;;;;;;0.60;0.40;;;;;;;12.47;100.00;96286.00;3163797;23;20022;-90
2023/10/26 02:28:55;;;;;;;0.38;0.30;;;;;;;12.47;100.00;96291.25;3147916;23;20045;-90
2023/10/26 02:30:10;;;;;;;0.80;0.30;;;;;;;12.46;100.00;96286.09;3154978;23;20025;-90
2023/10/26 02:31:26;;;;;;;0.25;0.22;;;;;;;12.44;100.00;96280.97;3164964;23;20022;-90
2023/10/26 02:32:42;;;;;;;0.30;0.30;;;;;;;12.50;100.00;96287.56;3163772;23;20022;-90
2023/10/26 02:33:57;;;;;;;1.00;0.30;;;;;;;12.59;100.00;96278.22;3147099;23;20031;-90
2023/10/26 02:35:13;;;;;;;0.30;0.30;;;;;;;12.48;100.00;96285.06;3153515;23;20017;-90
2023/10/26 02:36:28;;;;;;;0.80;0.40;;;;;;;12.39;100.00;96283.06;3163843;23;20026;-91
2023/10/26 02:37:44;;;;;;;0.57;0.40;;;;;;;12.42;100.00;96295.97;3163212;23;20024;-91
2023/10/26 02:38:59;;;;;;;1.42;0.32;;;;;;;12.60;100.00;96285.16;3147707;23;20542;-91
2023/10/26 02:40:15;;;;;;;0.40;0.40;;;;;;;12.52;100.00;96286.50;3154421;23;20022;-90
2023/10/26 02:41:30;;;;;;;1.85;0.40;;;;;;;12.48;100.00;96289.47;3163294;23;20289;-90
2023/10/26 02:42:46;;;;;;;0.85;0.52;;;;;;;12.43;100.00;96289.78;3163336;23;20053;-90
2023/10/26 02:44:01;;;;;;;0.38;0.38;;;;;;;12.53;100.00;96282.94;3163252;23;20029;-90
2023/10/26 02:45:18;;;;;;;0.28;0.28;;;;;;;12.57;100.00;96292.28;3163458;23;20028;-90
2023/10/26 02:46:33;;;;;;;1.05;0.47;;;;;;;12.38;100.00;96284.88;3163488;23;20363;-90
2023/10/26 02:47:49;;;;;;;0.43;0.38;;;;;;;12.51;100.00;96294.50;3147713;23;20045;-90
2023/10/26 02:49:04;;;;;;;1.50;0.22;;;;;;;12.61;100.00;96289.44;3154286;23;20093;-89
2023/10/26 02:50:20;;;;;;;0.30;0.30;;;;;;;12.54;100.00;96286.41;3164064;23;20049;-89
2023/10/26 02:51:35;;;;;;;0.52;0.40;;;;;;;12.55;100.00;96298.59;3164241;23;20395;-90
2023/10/26 02:52:51;;;;;;;0.22;0.20;;;;;;;12.52;100.00;96290.94;3164473;23;20461;-89
2023/10/26 02:54:07;;;;;;;0.30;0.30;;;;;;;12.54;100.00;96291.66;3147563;23;20022;-90
2023/10/26 02:55:24;;;;;;;0.38;0.30;;;;;;;12.66;100.00;96289.94;3153644;23;20026;-90
2023/10/26 02:56:39;;;;;;;0.63;0.30;;;;;;;12.65;100.00;96293.53;3163401;23;20018;-89
2023/10/26 02:57:56;;;;;;;0.40;0.30;;;;;;;12.66;100.00;96298.66;3163546;23;20025;-89
2023/10/26 02:59:12;;;;;;;0.35;0.30;;;;;;;12.74;100.00;96297.28;3163011;23;20022;-91
2023/10/26 03:00:27;;;;;;;0.40;0.40;;;;;;;12.46;100.00;96302.69;3163924;23;20358;-90
2023/10/26 03:01:43;;;;;;;0.30;0.30;;;;;;;12.50;100.00;96298.91;3148254;23;20416;-91
2023/10/26 03:02:58;;;;;;;0.20;0.20;;;;;;;12.59;100.00;96300.03;3154677;23;20022;-91
2023/10/26 03:04:14;;;;;;;0.30;0.30;;;;;;;12.50;100.00;96306.78;3164544;23;20065;-89
2023/10/26 03:05:30;;;;;;;0.30;0.30;;;;;;;12.56;100.00;96298.47;3148530;23;20022;-90
2023/10/26 03:06:46;;;;;;;0.30;0.30;;;;;;;12.51;100.00;96295.34;3138164;23;20382;-90
2023/10/26 03:08:02;;;;;;;0.10;0.10;;;;;;;12.59;100.00;96302.66;3153775;23;20026;-89
2023/10/26 03:09:17;;;;;;;0.15;0.10;;;;;;;12.55;100.00;96296.78;3147429;23;20069;-89
2023/10/26 03:10:33;;;;;;;0.30;0.30;;;;;;;12.56;100.00;96298.47;3138615;23;20022;-90
2023/10/26 03:11:49;;;;;;;0.38;0.38;;;;;;;12.60;100.00;96299.09;3153867;23;20454;-91
2023/10/26 03:13:07;;;;;;;0.77;0.30;;;;;;;12.61;100.00;96297.31;3164158;23;20026;-90
2023/10/26 03:14:23;;;;;;;0.73;0.40;;;;;;;12.67;100.00;96305.59;3163085;23;20022;-90
2023/10/26 03:15:38;;;;;;;0.20;0.10;;;;;;;12.57;100.00;96300.16;3164257;23;20446;-89
2023/10/26 03:16:54;;;;;;;0.30;0.30;;;;;;;12.47;100.00;96293.88;3163272;23;20335;-90
2023/10/26 03:18:09;;;;;;;0.40;0.40;;;;;;;12.53;100.00;96296.06;3163235;23;20041;-90
2023/10/26 03:19:25;;;;;;;3.40;0.40;;;;;;;12.45;100.00;96292.31;3163648;23;21056;-90
2023/10/26 03:20:40;;;;;;;0.30;0.30;;;;;;;12.47;100.00;96293.88;3163677;23;20358;-90
2023/10/26 03:21:57;;;;;;;0.20;0.20;;;;;;;12.35;100.00;96297.38;3163790;23;20097;-90
2023/10/26 03:23:13;;;;;;;0.20;0.20;;;;;;;12.31;100.00;96295.91;3147570;23;20025;-89
2023/10/26 03:24:28;;;;;;;0.85;0.30;;;;;;;12.34;100.00;96299.13;3153284;23;20022;-90
2023/10/26 03:25:43;;;;;;;0.40;0.40;;;;;;;12.45;100.00;96298.41;3164347;23;20026;-91
2023/10/26 03:26:59;;;;;;;0.68;0.35;;;;;;;12.36;100.00;96296.41;3148511;23;20105;-90
2023/10/26 03:28:15;;;;;;;0.30;0.30;;;;;;;12.38;100.00;96302.38;3138404;23;20368;-90
2023/10/26 03:29:30;;;;;;;0.35;0.35;;;;;;;12.32;100.00;96298.41;3153358;23;20025;-90
2023/10/26 03:30:46;;;;;;;2.05;0.60;;;;;;;12.44;100.00;96299.34;3163327;23;20297;-89
2023/10/26 03:32:02;;;;;;;0.40;0.40;;;;;;;12.36;100.00;96286.78;3163757;23;20032;-89
2023/10/26 03:33:18;;;;;;;0.57;0.40;;;;;;;12.34;100.00;96298.31;3163518;23;20028;-90
2023/10/26 03:34:35;;;;;;;0.63;0.40;;;;;;;12.49;100.00;96294.59;3163616;23;20026;-90
2023/10/26 03:35:50;;;;;;;0.30;0.30;;;;;;;12.56;100.00;96293.22;3163678;23;20450;-90
2023/10/26 03:37:06;;;;;;;0.40;0.40;;;;;;;12.36;100.00;96285.91;3164404;23;20160;-90
2023/10/26 03:38:21;;;;;;;0.73;0.32;;;;;;;12.36;100.00;96293.78;3164544;23;20029;-89
2023/10/26 03:39:37;;;;;;;0.40;0.30;;;;;;;12.21;100.00;96288.66;3163130;23;20018;-90
2023/10/26 03:40:52;;;;;;;0.50;0.50;;;;;;;12.36;100.00;96281.53;3162853;23;20265;-89
2023/10/26 03:42:08;;;;;;;0.80;0.80;;;;;;;12.39;100.00;96285.69;3163259;23;20025;-90
2023/10/26 03:43:24;;;;;;;0.50;0.45;;;;;;;12.26;100.00;96288.34;3163034;23;20069;-91
2023/10/26 03:44:39;;;;;;;0.30;0.30;;;;;;;12.31;100.00;96285.41;3162647;23;20393;-90
2023/10/26 03:45:55;;;;;;;0.40;0.40;;;;;;;12.19;100.00;96287.94;3163634;23;20383;-90
2023/10/26 03:47:10;;;;;;;0.70;0.32;;;;;;;12.41;100.00;96289.06;3163929;23;20350;-91
2023/10/26 03:48:26;;;;;;;0.30;0.30;;;;;;;12.27;100.00;96290.84;3164312;23;20451;-90
2023/10/26 03:49:41;;;;;;;0.73;0.20;;;;;;;12.32;100.00;96282.66;3162854;23;20018;-90
2023/10/26 03:50:57;;;;;;;0.40;0.40;;;;;;;12.39;100.00;96288.31;3163121;23;20089;-91
2023/10/26 03:52:13;;;;;;;1.30;0.47;;;;;;;12.45;100.00;96295.78;3161985;23;20080;-91
2023/10/26 03:53:28;;;;;;;0.32;0.32;;;;;;;12.35;100.00;96292.13;3162535;23;20021;-91
2023/10/26 03:54:44;;;;;;;0.60;0.50;;;;;;;12.56;100.00;96287.13;3163441;23;20046;-90
2023/10/26 03:55:59;;;;;;;0.55;0.45;;;;;;;12.48;100.00;96289.47;3163780;23;20030;-90
2023/10/26 03:57:18;;;;;;;1.25;0.40;;;;;;;12.50;100.00;96290.19;3163925;23;20070;-90
2023/10/26 03:58:33;;;;;;;0.30;0.30;;;;;;;12.35;100.00;96289.50;3147802;23;20053;-90
2023/10/26 03:59:49;;;;;;;1.10;0.50;;;;;;;12.57;100.00;96288.81;3154296;23;20021;-89
2023/10/26 04:01:05;;;;;;;0.28;0.28;;;;;;;12.27;100.00;96290.84;3164764;23;20101;-90
2023/10/26 04:02:20;;;;;;;0.40;0.40;;;;;;;12.35;100.00;96287.69;3163465;23;20354;-89
2023/10/26 04:03:36;;;;;;;0.65;0.50;;;;;;;12.53;100.00;96282.94;3163078;23;20044;-89
2023/10/26 04:04:51;;;;;;;0.30;0.30;;;;;;;12.32;100.00;96282.66;3162694;23;20097;-89
2023/10/26 04:06:08;;;;;;;0.55;0.55;;;;;;;12.49;100.00;96289.34;3163479;23;20026;-89
2023/10/26 04:07:23;;;;;;;1.25;0.45;;;;;;;12.27;100.00;96282.97;3163736;23;20022;-89
2023/10/26 04:08:39;;;;;;;0.40;0.30;;;;;;;12.48;100.00;96281.59;3164119;23;20033;-89
2023/10/26 04:09:54;;;;;;;0.30;0.30;;;;;;;12.33;100.00;96280.91;3162798;23;20351;-88
2023/10/26 04:11:19;;;;;;;0.43;0.38;;;;;;;12.23;100.00;96272.84;3164194;23;20451;-89
2023/10/26 04:12:35;;;;;;;0.60;0.40;;;;;;;12.24;100.00;96271.88;3163689;23;20026;-88
2023/10/26 04:13:53;;;;;;;0.95;0.57;;;;;;;12.13;100.00;96276.09;3148058;23;20344;-90
2023/10/26 04:15:09;;;;;;;0.30;0.30;;;;;;;12.36;100.00;96270.19;3153887;23;20033;-90
2023/10/26 04:16:25;;;;;;;0.80;0.40;;;;;;;12.30;100.00;96268.81;3162883;23;20021;-90
2023/10/26 04:17:41;;;;;;;0.75;0.63;;;;;;;12.31;100.00;96265.25;3162939;23;20025;-89
2023/10/26 04:18:56;;;;;;;0.68;0.50;;;;;;;12.32;100.00;96263.47;3162709;23;20022;-89
2023/10/26 04:20:12;;;;;;;0.30;0.30;;;;;;;12.39;100.00;96264.69;3163303;23;20021;-90
2023/10/26 04:21:27;;;;;;;0.55;0.43;;;;;;;12.23;100.00;96263.16;3163418;23;20077;-90
2023/10/26 04:22:43;;;;;;;0.63;0.40;;;;;;;12.24;100.00;96259.59;3146670;23;20057;-89
2023/10/26 04:23:59;;;;;;;1.05;0.40;;;;;;;12.28;100.00;96260.22;3152811;23;20026;-90
2023/10/26 04:25:15;;;;;;;0.70;0.50;;;;;;;12.32;100.00;96258.22;3162654;23;20045;-91
2023/10/26 04:26:31;;;;;;;0.55;0.32;;;;;;;12.33;100.00;96259.91;3164525;23;20026;-89
2023/10/26 04:27:46;;;;;;;0.60;0.40;;;;;;;12.51;100.00;96258.59;3163298;23;20033;-90
2023/10/26 04:29:02;;;;;;;0.50;0.50;;;;;;;12.26;100.00;96259.50;3146839;23;20410;-89
2023/10/26 04:30:18;;;;;;;0.70;0.50;;;;;;;12.24;100.00;96254.34;3153332;23;20530;-89
2023/10/26 04:31:34;;;;;;;2.90;0.45;;;;;;;12.42;100.00;96257.47;3146782;23;20046;-89
2023/10/26 04:32:50;;;;;;;0.32;0.32;;;;;;;12.29;100.00;96268.00;3146743;23;20093;-89
2023/10/26 04:34:05;;;;;;;1.15;0.40;;;;;;;12.33;100.00;96260.72;3152918;23;20045;-89
2023/10/26 04:35:21;;;;;;;0.63;0.50;;;;;;;12.18;100.00;96262.66;3162722;23;20026;-89
2023/10/26 04:36:36;;;;;;;0.22;0.22;;;;;;;12.32;100.00;96253.81;3163089;23;20517;-89
2023/10/26 04:37:52;;;;;;;0.52;0.38;;;;;;;12.31;100.00;96264.44;3164262;23;20054;-90
2023/10/26 04:39:11;;;;;;;0.43;0.30;;;;;;;12.21;100.00;96261.59;3163428;23;20056;-89
2023/10/26 04:40:26;;;;;;;0.50;0.50;;;;;;;12.10;100.00;96252.69;3164541;23;20077;-90
2023/10/26 04:41:43;;;;;;;0.70;0.40;;;;;;;12.20;100.00;96255.50;3162890;23;20081;-89
2023/10/26 04:42:58;;;;;;;0.30;0.30;;;;;;;12.02;100.00;96257.63;3163136;23;20042;-88
2023/10/26 04:44:14;;;;;;;0.50;0.50;;;;;;;12.19;100.00;96248.59;3163335;23;20037;-89
2023/10/26 04:45:30;;;;;;;0.30;0.30;;;;;;;12.15;100.00;96260.22;3163599;23;20026;-87
2023/10/26 04:46:45;;;;;;;0.95;0.40;;;;;;;12.27;100.00;96256.75;3162979;23;20021;-88
2023/10/26 04:48:01;;;;;;;0.52;0.50;;;;;;;12.25;100.00;96253.41;3163581;23;20466;-88
2023/10/26 04:49:16;;;;;;;0.30;0.30;;;;;;;12.25;100.00;96250.78;3162674;23;20477;-88
2023/10/26 04:50:32;;;;;;;0.85;0.45;;;;;;;12.15;100.00;96258.44;3162982;23;20106;-88
2023/10/26 04:51:48;;;;;;;0.75;0.40;;;;;;;12.03;100.00;96255.84;3148519;23;20022;-89
2023/10/26 04:53:04;;;;;;;2.00;0.40;;;;;;;12.04;100.00;96250.47;3153243;23;20455;-90
2023/10/26 04:54:19;;;;;;;1.23;0.38;;;;;;;12.28;100.00;96258.41;3163058;23;20053;-89
2023/10/26 04:55:35;;;;;;;0.45;0.40;;;;;;;11.97;100.00;96243.97;3162403;23;20029;-89
2023/10/26 04:56:50;;;;;;;0.40;0.40;;;;;;;12.17;100.00;96255.72;3162954;23;20018;-89
2023/10/26 04:58:06;;;;;;;0.38;0.35;;;;;;;11.93;100.00;96250.34;3163171;23;20022;-89
2023/10/26 04:59:22;;;;;;;0.20;0.20;;;;;;;12.04;100.00;96254.91;3164009;23;20029;-90
2023/10/26 05:00:37;;;;;;;0.60;0.38;;;;;;;12.12;100.00;96256.03;3164285;23;20025;-89
2023/10/26 05:01:53;;;;;;;0.85;0.50;;;;;;;12.15;100.00;96253.19;3165386;23;20025;-89
2023/10/26 05:03:09;;;;;;;0.45;0.40;;;;;;;12.09;100.00;96263.28;3163827;23;20041;-88
2023/10/26 05:04:24;;;;;;;0.35;0.30;;;;;;;11.98;100.00;96254.34;3162911;23;20606;-90
2023/10/26 05:05:40;;;;;;;0.50;0.50;;;;;;;12.16;100.00;96261.94;3148266;23;20058;-90
2023/10/26 05:06:55;;;;;;;0.60;0.50;;;;;;;12.07;100.00;96255.50;3154165;23;20013;-90
2023/10/26 05:08:11;;;;;;;0.50;0.40;;;;;;;11.91;100.00;96254.88;3164138;23;20028;-89
2023/10/26 05:09:26;;;;;;;0.30;0.30;;;;;;;11.97;100.00;96257.09;3164856;23;20069;-89
2023/10/26 05:10:42;;;;;;;0.38;0.38;;;;;;;11.84;100.00;96244.81;3147848;23;20093;-89
2023/10/26 05:11:57;;;;;;;0.52;0.38;;;;;;;12.02;100.00;96257.63;3154253;23;20032;-89
2023/10/26 05:13:13;;;;;;;0.65;0.43;;;;;;;11.99;100.00;96256.00;3163827;23;20029;-90
2023/10/26 05:14:29;;;;;;;0.25;0.25;;;;;;;12.01;100.00;96248.03;3164164;23;20550;-89
2023/10/26 05:15:44;;;;;;;0.38;0.38;;;;;;;11.92;100.00;96257.41;3164365;23;20525;-89
2023/10/26 05:17:00;;;;;;;0.40;0.40;;;;;;;11.94;100.00;96260.75;3164385;23;20032;-90
2023/10/26 05:18:17;;;;;;;0.60;0.47;;;;;;;12.00;100.00;96265.56;3164662;23;20049;-89
2023/10/26 05:19:32;;;;;;;1.27;0.30;;;;;;;12.01;100.00;96263.78;3148718;23;20057;-89
2023/10/26 05:20:49;;;;;;;1.95;0.70;;;;;;;11.97;100.00;96259.69;3148929;23;20022;-89
2023/10/26 05:22:05;;;;;;;0.60;0.30;;;;;;;12.16;100.00;96256.69;3155758;23;20033;-89
2023/10/26 05:23:20;;;;;;;1.85;0.50;;;;;;;11.98;100.00;96261.38;3164000;23;20017;-90
2023/10/26 05:24:37;;;;;;;0.50;0.50;;;;;;;11.95;100.00;96262.41;3163704;23;20017;-89
2023/10/26 05:25:52;;;;;;;0.30;0.30;;;;;;;12.01;100.00;96266.41;3163657;23;20042;-89
2023/10/26 05:27:08;;;;;;;1.20;0.38;;;;;;;12.00;100.00;96264.72;3148350;23;20078;-89
2023/10/26 05:28:23;;;;;;;0.45;0.40;;;;;;;12.06;100.00;96263.50;3154935;23;20026;-89
2023/10/26 05:29:39;;;;;;;0.30;0.30;;;;;;;12.16;100.00;96269.78;3164613;23;20021;-89
2023/10/26 05:30:55;;;;;;;1.10;0.30;;;;;;;12.10;100.00;96267.59;3164395;23;20347;-90
2023/10/26 05:32:10;;;;;;;0.50;0.50;;;;;;;12.12;100.00;96269.16;3163951;23;20466;-90
2023/10/26 05:33:26;;;;;;;0.50;0.50;;;;;;;12.12;100.00;96265.69;3163805;23;20022;-90
2023/10/26 05:34:41;;;;;;;1.13;0.30;;;;;;;12.00;100.00;96265.56;3164116;23;20037;-90
2023/10/26 05:35:57;;;;;;;0.30;0.30;;;;;;;11.98;100.00;96264.00;3163657;23;20395;-90
2023/10/26 05:37:13;;;;;;;0.73;0.40;;;;;;;11.99;100.00;96273.53;3164171;23;20034;-89
2023/10/26 05:38:28;;;;;;;0.40;0.40;;;;;;;12.22;100.00;96269.34;3164586;23;20046;-89
2023/10/26 05:39:44;;;;;;;0.20;0.20;;;;;;;12.01;100.00;96274.28;3164714;23;20033;-91
2023/10/26 05:40:59;;;;;;;0.30;0.30;;;;;;;12.01;100.00;96266.41;3164570;23;20041;-89
2023/10/26 05:42:15;;;;;;;0.47;0.40;;;;;;;11.92;100.00;96270.50;3147667;23;20081;-89
2023/10/26 05:43:30;;;;;;;0.95;0.43;;;;;;;12.19;100.00;96273.97;3154263;23;20178;-90
2023/10/26 05:44:46;;;;;;;0.15;0.15;;;;;;;12.07;100.00;96273.03;3164019;23;20049;-89
2023/10/26 05:46:04;;;;;;;0.60;0.40;;;;;;;12.04;100.00;96276.72;3147796;23;20045;-90
2023/10/26 05:47:19;;;;;;;1.27;0.40;;;;;;;11.97;100.00;96270.19;3154693;23;20026;-89
2023/10/26 05:48:35;;;;;;;0.40;0.40;;;;;;;12.21;100.00;96274.69;3148076;23;20186;-89
2023/10/26 05:49:51;;;;;;;1.02;0.40;;;;;;;12.10;100.00;96268.44;3154597;23;20029;-89
2023/10/26 05:51:06;;;;;;;0.40;0.40;;;;;;;12.06;100.00;96274.00;3164274;23;20033;-89
2023/10/26 05:52:22;;;;;;;0.20;0.20;;;;;;;12.14;100.00;96279.53;3164512;23;20042;-89